Time;durP1;ratioP1;P1;durP2;ratioP2;P2;SDS_P1;SDS_P2;PMS_P1;PMS_P2;Temp;Humidity;BMP_temperature;BMP_pressure;BME280_temperature;BME280_humidity;BME280_pressure;Samples;Min_cycle;Max_cycle;Signal;HPM_P1;HPM_P2
2022/04/26 03:37:31;;;;;;;30.80;11.85;;;;;;;17.73;62.87;99951.84;10312976;28;20097;-80
2022/04/26 03:42:33;;;;;;;30.90;11.60;;;;;;;18.13;62.08;100004.38;10380014;28;20144;-81
2022/04/26 03:47:34;;;;;;;19.00;6.72;;;;;;;17.82;59.68;99823.44;10376419;28;20379;-81
2022/04/26 03:52:35;;;;;;;18.80;6.43;;;;;;;18.42;57.46;99857.50;10410017;28;20041;-81
2022/04/26 03:57:35;;;;;;;15.48;6.50;;;;;;;19.22;57.45;99972.75;10405284;28;20041;-81
2022/04/26 04:02:36;;;;;;;15.30;5.90;;;;;;;18.96;56.33;99879.78;10372671;28;20045;-82
2022/04/26 04:07:37;;;;;;;17.45;6.18;;;;;;;18.86;56.19;99858.03;10394297;28;20115;-82
2022/04/26 04:12:38;;;;;;;15.70;6.03;;;;;;;19.32;55.87;99947.91;10405182;28;20041;-81
2022/04/26 04:17:38;;;;;;;20.92;5.82;;;;;;;19.66;55.66;99983.19;10412715;28;20037;-79
2022/04/26 04:22:40;;;;;;;20.40;8.98;;;;;;;18.73;55.38;99842.13;10410114;28;20057;-80
2022/04/26 04:27:41;;;;;;;15.73;6.50;;;;;;;18.79;54.85;99804.34;10413340;28;20109;-84
2022/04/26 04:32:42;;;;;;;20.95;6.72;;;;;;;19.84;54.65;99962.28;10413051;28;20037;-86
2022/04/26 04:37:43;;;;;;;20.67;7.55;;;;;;;20.05;53.89;99954.63;10412727;28;20046;-88
2022/04/26 04:42:45;;;;;;;17.33;7.18;;;;;;;19.95;54.25;99992.13;10411669;28;20037;-84
2022/04/26 04:47:46;;;;;;;20.13;7.53;;;;;;;19.60;54.42;99996.50;10411901;28;20075;-76
2022/04/26 04:52:47;;;;;;;19.20;7.78;;;;;;;18.75;54.78;99891.97;10412209;28;20033;-79
2022/04/26 04:57:48;;;;;;;15.70;7.25;;;;;;;19.32;55.89;99985.63;10412151;28;20496;-80
2022/04/26 05:02:49;;;;;;;19.15;7.75;;;;;;;18.80;57.12;99972.81;10412050;28;20068;-79
2022/04/26 05:07:52;;;;;;;19.80;8.50;;;;;;;18.54;57.50;99965.13;10387397;28;20058;-79
2022/04/26 05:12:53;;;;;;;16.60;8.13;;;;;;;17.87;57.70;99841.59;10370887;28;20042;-80
2022/04/26 05:17:54;;;;;;;13.27;7.32;;;;;;;18.93;57.23;99977.16;10353240;28;20156;-81
2022/04/26 05:28:13;;;;;;;19.00;8.13;;;;;;;19.50;56.90;99972.03;10370145;28;20079;-79
2022/04/26 05:33:14;;;;;;;20.70;7.55;;;;;;;19.67;56.87;99952.50;10377898;28;20375;-80
2022/04/26 05:38:15;;;;;;;16.50;7.63;;;;;;;20.03;56.30;99959.41;10377662;28;20042;-77
2022/04/26 05:43:16;;;;;;;13.75;6.63;;;;;;;19.99;56.29;99926.72;10377520;28;20080;-79
2022/04/26 05:48:17;;;;;;;15.55;7.50;;;;;;;20.25;55.89;99913.72;10377395;28;20498;-79
2022/04/26 05:53:18;;;;;;;20.27;6.20;;;;;;;20.80;55.03;99966.25;10377527;28;20100;-78
2022/04/26 05:58:20;;;;;;;19.10;6.55;;;;;;;19.98;55.08;99829.91;10377484;28;20048;-79
2022/04/26 06:03:21;;;;;;;20.67;5.63;;;;;;;20.72;55.08;99948.56;10377241;28;20048;-80
2022/04/26 06:08:23;;;;;;;17.52;5.22;;;;;;;20.37;54.50;99851.59;10406885;28;20079;-78
2022/04/26 06:13:23;;;;;;;27.27;5.75;;;;;;;21.36;53.56;99967.16;10417842;28;20572;-79
2022/04/26 06:18:24;;;;;;;17.63;5.05;;;;;;;21.31;53.27;99950.84;10417603;28;20135;-78
2022/04/26 06:23:25;;;;;;;16.98;4.85;;;;;;;21.69;52.50;99958.16;10416929;28;20098;-80
2022/04/26 06:28:26;;;;;;;21.85;4.70;;;;;;;21.23;51.49;99827.81;10416525;28;20107;-85
2022/04/26 06:33:27;;;;;;;30.38;5.55;;;;;;;21.78;50.84;99826.88;10417303;28;20045;-79
2022/04/26 06:38:27;;;;;;;28.20;5.22;;;;;;;22.32;50.14;99870.16;10416729;28;20412;-82
2022/04/26 06:43:32;;;;;;;15.55;4.13;;;;;;;23.02;49.26;99979.34;10416187;28;20128;-80
2022/04/26 06:48:33;;;;;;;22.23;4.72;;;;;;;23.07;48.83;99921.69;10416411;28;20052;-79
2022/04/26 06:53:34;;;;;;;23.20;5.22;;;;;;;23.13;48.11;99907.09;10415759;28;20049;-79
2022/04/26 06:58:35;;;;;;;27.23;4.90;;;;;;;23.52;47.43;99938.47;10415770;28;20045;-79
2022/04/26 07:03:36;;;;;;;30.35;5.10;;;;;;;22.64;46.96;99823.31;10416054;28;20041;-78
2022/04/26 07:08:37;;;;;;;33.80;5.20;;;;;;;23.87;46.21;99962.22;10415779;28;20057;-79
2022/04/26 07:13:37;;;;;;;28.33;5.13;;;;;;;23.91;46.00;99957.94;10415575;28;20048;-80
2022/04/26 07:18:38;;;;;;;17.90;4.53;;;;;;;23.95;45.55;99918.31;10415265;28;20087;-78
2022/04/26 07:23:39;;;;;;;28.05;5.13;;;;;;;23.96;45.63;99865.72;10414407;28;20099;-78
2022/04/26 07:28:40;;;;;;;23.45;4.80;;;;;;;24.58;45.29;99919.00;10414885;28;20048;-78
2022/04/26 07:38:59;;;;;;;21.92;4.57;;;;;;;24.96;43.24;99919.53;10413922;28;20084;-78
2022/04/26 07:44:00;;;;;;;17.42;4.60;;;;;;;24.88;42.56;99873.91;10413575;28;20079;-85
2022/04/26 07:49:01;;;;;;;26.02;4.68;;;;;;;25.35;41.56;99923.59;10413834;28;20124;-81
2022/04/26 07:54:02;;;;;;;16.73;3.85;;;;;;;25.09;41.34;99858.38;10414068;28;20042;-78
2022/04/26 07:59:04;;;;;;;23.75;4.60;;;;;;;25.32;40.31;99873.28;10413777;28;20029;-78
2022/04/26 08:04:04;;;;;;;18.92;4.35;;;;;;;25.72;40.24;99915.00;10413645;28;20040;-79
2022/04/26 08:09:05;;;;;;;19.00;4.20;;;;;;;25.54;39.65;99839.47;10414235;28;20068;-82
2022/04/26 08:14:06;;;;;;;14.18;4.40;;;;;;;26.13;39.24;99871.28;10411896;28;20531;-78
2022/04/26 08:19:10;;;;;;;20.48;3.90;;;;;;;26.49;37.67;99882.75;10413334;28;20048;-78
2022/04/26 08:29:30;;;;;;;15.95;3.90;;;;;;;27.19;37.17;99871.50;10412592;28;20118;-78
2022/04/26 08:34:31;;;;;;;21.98;4.32;;;;;;;26.93;37.05;99819.13;10412535;28;20142;-82
2022/04/26 08:39:31;;;;;;;17.95;4.22;;;;;;;26.92;37.57;99869.25;10412605;28;20073;-78
2022/04/26 08:44:34;;;;;;;16.08;4.22;;;;;;;27.11;37.99;99814.84;10413338;28;20045;-78
2022/04/26 08:54:54;;;;;;;18.23;4.25;;;;;;;27.84;37.68;99835.47;10412030;28;20041;-80
2022/04/26 08:59:55;;;;;;;15.77;4.47;;;;;;;27.50;36.77;99827.47;10414138;28;20045;-78
2022/04/26 09:05:01;;;;;;;27.42;4.03;;;;;;;27.76;36.64;99866.13;10420394;28;20033;-81
2022/04/26 09:10:17;;;;;;;18.30;4.20;;;;;;;26.91;36.39;99656.97;10420710;28;20092;-78
2022/04/26 09:15:18;;;;;;;17.63;3.85;;;;;;;27.58;35.62;99753.13;10403154;28;20059;-79
2022/04/26 09:20:39;;;;;;;18.15;3.65;;;;;;;27.79;34.55;99808.28;10419763;28;20454;-78
2022/04/26 09:25:40;;;;;;;19.33;3.75;;;;;;;27.29;35.38;99732.28;10418826;28;20513;-78
2022/04/26 09:30:40;;;;;;;15.68;3.47;;;;;;;27.93;34.56;99800.13;10418897;28;20038;-78
2022/04/26 09:35:41;;;;;;;14.82;3.42;;;;;;;28.28;34.30;99806.13;10419329;28;20049;-78
2022/04/26 09:40:47;;;;;;;14.32;3.90;;;;;;;28.31;33.59;99808.28;10418901;28;20196;-78
2022/04/26 09:45:56;;;;;;;16.92;3.33;;;;;;;28.37;32.23;99839.84;10418511;28;20547;-78
2022/04/26 09:50:57;;;;;;;22.38;3.75;;;;;;;28.30;33.65;99840.25;10418857;28;20404;-79
2022/04/26 09:55:59;;;;;;;12.85;3.30;;;;;;;27.70;33.26;99739.88;10417944;28;20041;-81
2022/04/26 10:01:04;;;;;;;19.90;4.00;;;;;;;26.39;32.55;99529.59;10417871;28;20045;-77
2022/04/26 10:06:07;;;;;;;14.48;3.42;;;;;;;28.19;32.87;99838.78;10417813;28;20045;-82
2022/04/26 10:11:08;;;;;;;13.70;3.70;;;;;;;27.43;32.98;99702.38;10417229;28;20050;-78
2022/04/26 10:16:19;;;;;;;16.85;3.25;;;;;;;28.58;32.28;99815.75;10417770;28;20120;-77
2022/04/26 10:21:22;;;;;;;11.32;3.45;;;;;;;28.37;31.98;99763.38;10418170;28;20051;-77
2022/04/26 10:26:24;;;;;;;15.23;3.97;;;;;;;28.72;32.32;99788.44;10416629;28;20053;-77
2022/04/26 10:31:45;;;;;;;9.88;2.90;;;;;;;29.14;31.97;99814.72;10416611;28;20045;-77
2022/04/26 10:36:48;;;;;;;12.55;3.53;;;;;;;29.29;31.61;99799.91;10417587;28;20060;-77
2022/04/26 10:41:49;;;;;;;15.88;3.35;;;;;;;29.55;31.14;99800.97;10416397;28;20117;-78
2022/04/26 10:46:58;;;;;;;14.57;3.35;;;;;;;29.25;31.03;99794.22;10416706;28;20053;-78
2022/04/26 10:52:14;;;;;;;16.92;3.50;;;;;;;27.99;30.77;99586.00;10416359;28;20037;-79
2022/04/26 10:57:16;;;;;;;12.95;3.28;;;;;;;29.44;30.42;99777.69;10416239;28;20045;-78
2022/04/26 11:02:22;;;;;;;14.55;3.20;;;;;;;29.01;29.79;99679.56;10416148;28;20049;-78
2022/04/26 11:07:26;;;;;;;14.63;3.60;;;;;;;28.89;29.73;99674.63;10415522;28;20475;-78
2022/04/26 11:12:33;;;;;;;12.27;3.38;;;;;;;29.64;29.62;99779.19;10414921;28;20494;-79
2022/04/26 11:17:34;;;;;;;16.08;3.08;;;;;;;29.44;29.67;99768.69;10414706;28;20099;-80
2022/04/26 11:22:43;;;;;;;13.98;4.22;;;;;;;29.24;28.94;99756.25;10396664;28;20455;-75
2022/04/26 11:33:06;;;;;;;11.95;3.15;;;;;;;29.55;29.21;99727.06;10415439;28;20040;-81
2022/04/26 11:38:13;;;;;;;15.90;3.55;;;;;;;29.29;28.11;99702.25;10415098;28;20128;-78
2022/04/26 11:43:19;;;;;;;18.88;3.53;;;;;;;29.01;28.71;99635.81;10413474;28;20060;-80
2022/04/26 11:48:23;;;;;;;13.30;3.38;;;;;;;29.43;28.67;99702.19;10413709;28;20583;-77
2022/04/26 11:53:29;;;;;;;16.70;3.42;;;;;;;28.99;28.53;99618.94;10414140;28;20128;-79
2022/04/26 11:58:31;;;;;;;16.60;3.13;;;;;;;29.82;28.11;99722.63;10414856;28;20037;-78
2022/04/26 12:03:53;;;;;;;14.93;3.30;;;;;;;29.88;28.40;99728.81;10414292;28;20037;-78
2022/04/26 12:08:56;;;;;;;14.50;2.90;;;;;;;29.80;28.51;99692.84;10414251;28;20075;-77
2022/04/26 12:14:21;;;;;;;11.45;3.15;;;;;;;30.03;28.81;99722.94;10413014;28;20052;-80
2022/04/26 12:19:36;;;;;;;11.35;3.50;;;;;;;29.21;28.53;99628.31;10412268;28;20110;-77
2022/04/26 12:24:48;;;;;;;13.50;3.10;;;;;;;29.77;29.15;99720.84;10405006;28;20072;-75
2022/04/26 12:29:51;;;;;;;18.58;3.65;;;;;;;29.67;29.33;99704.66;10397070;28;20390;-75
2022/04/26 12:34:57;;;;;;;19.35;4.75;;;;;;;29.65;29.44;99703.38;10381860;28;20121;-73
2022/04/26 12:40:08;;;;;;;13.80;4.00;;;;;;;29.40;29.69;99689.13;10379651;28;20121;-75
2022/04/26 12:45:21;;;;;;;19.05;4.20;;;;;;;28.42;29.84;99526.47;10371241;28;20378;-73
2022/04/26 12:50:28;;;;;;;15.23;4.18;;;;;;;29.62;30.16;99704.00;10421030;28;20076;-74
2022/04/26 12:55:40;;;;;;;20.95;4.55;;;;;;;29.43;29.62;99690.44;10420370;28;20049;-71
2022/04/26 13:00:48;;;;;;;20.23;3.83;;;;;;;29.63;29.39;99720.09;10421521;28;20523;-74
2022/04/26 13:05:50;;;;;;;11.50;3.78;;;;;;;29.45;29.42;99682.72;10420002;28;20064;-72
2022/04/26 13:10:51;;;;;;;28.25;4.68;;;;;;;29.54;29.75;99695.38;10402530;28;20413;-73
2022/04/26 13:15:52;;;;;;;15.77;4.38;;;;;;;29.58;29.40;99701.03;10417242;28;20041;-72
2022/04/26 13:20:54;;;;;;;16.65;4.72;;;;;;;28.82;28.21;99599.63;10418491;28;20128;-74
2022/04/26 13:25:57;;;;;;;21.02;5.20;;;;;;;29.50;28.62;99712.72;10413113;28;20048;-73
2022/04/26 13:30:58;;;;;;;;;;;;;;;29.71;28.72;99721.28;10413569;28;20132;-77
2022/04/26 13:35:58;;;;;;;22.13;4.85;;;;;;;29.21;29.21;99677.53;10413347;28;19923;-74
2022/04/26 13:41:00;;;;;;;23.55;4.53;;;;;;;26.88;29.43;99319.66;10412187;28;20038;-74
2022/04/26 13:46:01;;;;;;;18.27;4.85;;;;;;;28.22;29.12;99530.38;10413921;28;20489;-74
2022/04/26 13:51:01;;;;;;;26.98;5.10;;;;;;;28.85;29.25;99642.75;10417576;28;20049;-73
2022/04/26 13:56:06;;;;;;;19.10;5.05;;;;;;;29.14;29.77;99691.66;10419168;28;20041;-72
2022/04/26 14:01:07;;;;;;;17.70;5.50;;;;;;;29.07;30.02;99702.19;10418310;28;20083;-75
2022/04/26 14:06:10;;;;;;;20.85;4.93;;;;;;;28.39;30.03;99610.88;10417873;28;20060;-76
2022/04/26 14:11:10;;;;;;;37.97;5.22;;;;;;;28.91;30.23;99709.88;10418915;28;20049;-74
2022/04/26 14:21:49;;;;;;;24.38;5.82;;;;;;;28.26;31.39;99647.22;10417569;28;20512;-71
2022/04/26 14:26:51;;;;;;;18.98;5.43;;;;;;;27.67;32.01;99584.09;10415758;28;20041;-72
2022/04/26 14:31:52;;;;;;;20.80;5.35;;;;;;;28.23;32.33;99684.94;10416935;28;20386;-72
2022/04/26 14:36:53;;;;;;;24.38;5.13;;;;;;;27.41;33.18;99567.38;10416557;28;20041;-71
2022/04/26 14:41:54;;;;;;;20.75;5.10;;;;;;;27.77;33.66;99658.44;10412596;28;20108;-72
2022/04/26 14:46:55;;;;;;;26.45;5.03;;;;;;;27.45;33.70;99626.47;10417273;28;20069;-72
2022/04/26 14:51:56;;;;;;;18.92;4.93;;;;;;;27.30;34.04;99637.63;10416255;28;20143;-71
2022/04/26 14:56:56;;;;;;;22.13;5.03;;;;;;;26.65;34.99;99583.75;10397606;28;20401;-72
2022/04/26 15:01:57;;;;;;;20.67;4.70;;;;;;;26.64;35.13;99603.94;10416110;28;20048;-72
2022/04/26 15:06:58;;;;;;;29.23;5.60;;;;;;;27.04;35.51;99708.88;10407232;28;20486;-74
2022/04/26 15:17:19;;;;;;;23.70;4.82;;;;;;;25.35;36.39;99543.75;10414847;28;20037;-72
2022/04/26 15:22:26;;;;;;;47.22;5.80;;;;;;;26.02;36.87;99703.69;10414237;28;20505;-72
2022/04/26 15:27:27;;;;;;;18.38;4.57;;;;;;;25.49;37.51;99669.81;10414353;28;20413;-72
2022/04/26 15:32:27;;;;;;;19.38;4.28;;;;;;;24.72;37.71;99597.97;10415017;28;20037;-73
2022/04/26 15:37:29;;;;;;;37.85;5.35;;;;;;;24.74;38.33;99667.22;10414395;28;20064;-74
2022/04/26 15:42:33;;;;;;;25.27;4.60;;;;;;;24.58;39.36;99715.34;10412925;28;20033;-72
2022/04/26 15:47:35;;;;;;;27.45;4.32;;;;;;;24.44;39.22;99716.19;10413366;28;20494;-73
2022/04/26 15:52:37;;;;;;;18.55;4.10;;;;;;;24.02;39.77;99696.44;10414262;28;20408;-73
2022/04/26 15:57:39;;;;;;;31.50;5.50;;;;;;;23.88;40.21;99706.19;10414328;28;20091;-73
2022/04/26 16:02:40;;;;;;;29.38;4.53;;;;;;;22.75;40.46;99546.13;10413490;28;20029;-73
2022/04/26 16:07:41;;;;;;;48.30;5.20;;;;;;;23.14;40.70;99632.34;10413518;28;20497;-72
2022/04/26 16:23:20;;;;;;;34.60;5.05;;;;;;;23.28;40.93;99759.22;10411796;28;20627;-73
2022/04/26 16:28:21;;;;;;;28.55;4.47;;;;;;;22.86;41.16;99728.41;10413125;28;20187;-73
2022/04/26 16:33:22;;;;;;;22.02;4.60;;;;;;;21.98;41.33;99622.59;10412149;28;20033;-74
2022/04/26 16:38:23;;;;;;;18.65;3.97;;;;;;;21.93;41.52;99646.91;10391679;28;20131;-80
2022/04/26 16:43:24;;;;;;;22.88;4.43;;;;;;;22.07;41.85;99716.50;10412136;28;20060;-78
2022/04/26 16:48:25;;;;;;;27.13;4.72;;;;;;;21.50;42.24;99665.75;10412068;28;20045;-79
2022/04/26 16:53:26;;;;;;;24.90;4.50;;;;;;;21.93;42.57;99755.91;10410710;28;20052;-79
2022/04/26 16:58:26;;;;;;;21.73;4.28;;;;;;;22.04;43.00;99797.38;10410801;28;20116;-78
2022/04/26 17:03:27;;;;;;;30.77;5.32;;;;;;;20.86;43.47;99658.31;10410774;28;20041;-79
2022/04/26 17:08:28;;;;;;;33.97;5.13;;;;;;;21.09;43.31;99708.56;10409397;28;20057;-78
2022/04/26 17:13:29;;;;;;;23.88;5.28;;;;;;;21.59;43.98;99810.16;10411188;28;20037;-77
2022/04/26 17:18:31;;;;;;;33.33;6.45;;;;;;;20.73;44.09;99688.38;10394802;28;20041;-78
2022/04/26 17:23:32;;;;;;;25.85;5.28;;;;;;;21.19;44.61;99799.69;10414416;28;20068;-77
2022/04/26 17:28:32;;;;;;;26.30;4.97;;;;;;;20.09;44.45;99636.78;10417740;28;20077;-77
2022/04/26 17:33:34;;;;;;;25.02;4.22;;;;;;;21.17;44.79;99828.81;10416862;28;20567;-76
2022/04/26 17:38:34;;;;;;;23.45;4.32;;;;;;;21.10;45.02;99836.28;10417539;28;20030;-76
2022/04/26 17:43:36;;;;;;;26.15;4.68;;;;;;;19.91;45.52;99671.03;10405375;28;20472;-76
2022/04/26 17:48:37;;;;;;;38.90;11.13;;;;;;;20.78;45.96;99866.59;10397608;28;20094;-76
2022/04/26 17:58:58;;;;;;;40.40;5.07;;;;;;;20.59;46.80;99820.19;10388690;28;20453;-81
2022/04/26 18:03:58;;;;;;;27.75;4.70;;;;;;;20.66;46.66;99847.81;10379471;28;20038;-78
2022/04/26 18:09:00;;;;;;;28.48;4.30;;;;;;;20.02;46.65;99759.09;10404001;28;20052;-80
2022/04/26 18:14:00;;;;;;;36.38;4.28;;;;;;;20.28;46.81;99806.19;10459741;28;20545;-76
2022/04/26 18:19:04;;;;;;;21.63;4.70;;;;;;;20.24;47.02;99805.00;10435194;28;20047;-77
2022/04/26 18:24:05;;;;;;;;;;;;;;;20.59;46.42;99860.66;10415158;28;20041;-74
2022/04/26 18:29:08;;;;;;;21.58;4.07;;;;;;;20.35;47.58;99868.06;10374461;28;19918;-78
2022/04/26 18:34:09;;;;;;;19.30;3.97;;;;;;;19.15;48.15;99698.25;10375400;28;20038;-77
2022/04/26 18:39:10;;;;;;;29.60;3.88;;;;;;;18.28;48.96;99590.72;10375262;28;20045;-77
2022/04/26 18:44:16;;;;;;;37.08;4.80;;;;;;;18.41;49.96;99651.50;10375922;28;20494;-77
2022/04/26 18:49:18;;;;;;;43.72;4.68;;;;;;;16.86;50.52;99442.19;10375384;28;20048;-76
2022/04/26 18:54:22;;;;;;;29.30;4.63;;;;;;;18.44;50.85;99707.50;10376126;28;20034;-77
2022/04/26 18:59:23;;;;;;;25.17;4.40;;;;;;;19.10;51.02;99826.53;10375905;28;20475;-76
2022/04/26 19:04:25;;;;;;;26.73;4.13;;;;;;;18.94;50.92;99825.41;10390172;28;20405;-76
2022/04/26 19:09:26;;;;;;;26.13;4.15;;;;;;;18.00;51.42;99699.75;10402923;28;20068;-76
2022/04/26 19:14:26;;;;;;;26.80;3.85;;;;;;;17.94;51.78;99718.69;10400542;28;20553;-76
2022/04/26 19:19:27;;;;;;;35.83;4.93;;;;;;;17.21;52.46;99631.16;10403564;28;20051;-76
2022/04/26 19:24:28;;;;;;;22.50;4.47;;;;;;;17.36;52.98;99687.94;10393741;28;20489;-76
2022/04/26 19:29:29;;;;;;;44.55;5.63;;;;;;;17.68;53.24;99774.44;10414452;28;20045;-76
2022/04/26 19:34:30;;;;;;;32.28;5.00;;;;;;;16.01;53.61;99530.75;10397899;28;20037;-77
2022/04/26 19:39:31;;;;;;;29.77;4.53;;;;;;;17.34;54.02;99774.03;10414842;28;20053;-77
2022/04/26 19:44:32;;;;;;;28.83;4.45;;;;;;;17.44;55.00;99837.13;10413025;28;20041;-76
2022/04/26 19:49:33;;;;;;;27.13;4.25;;;;;;;17.15;55.59;99836.03;10414246;28;20037;-77
2022/04/26 19:54:34;;;;;;;27.13;4.50;;;;;;;16.78;55.81;99801.97;10396451;28;20041;-78
2022/04/26 19:59:34;;;;;;;29.48;4.47;;;;;;;15.72;55.86;99639.41;10414213;28;20095;-77
2022/04/26 20:04:35;;;;;;;23.33;3.78;;;;;;;15.97;55.68;99685.75;10413648;28;20041;-77
2022/04/26 20:09:36;;;;;;;40.33;4.40;;;;;;;16.38;55.97;99777.34;10413844;28;20061;-77
2022/04/26 20:14:37;;;;;;;45.20;6.68;;;;;;;15.71;56.48;99677.94;10396506;28;20348;-77
2022/04/26 20:19:38;;;;;;;22.48;5.18;;;;;;;16.09;57.13;99771.56;10414150;28;20502;-78
2022/04/26 20:24:38;;;;;;;18.90;4.35;;;;;;;15.60;57.54;99721.44;10412855;28;20038;-79
2022/04/26 20:29:45;;;;;;;28.83;4.35;;;;;;;15.28;58.13;99702.66;10413374;28;20045;-79
2022/04/26 20:34:48;;;;;;;27.70;4.47;;;;;;;15.29;59.24;99756.00;10413534;28;20045;-78
2022/04/26 20:39:50;;;;;;;21.60;3.83;;;;;;;15.21;60.16;99782.16;10412371;28;20046;-79
2022/04/26 20:44:51;;;;;;;30.58;3.75;;;;;;;15.10;59.80;99772.13;10412922;28;20049;-78
2022/04/26 20:49:53;;;;;;;19.63;5.25;;;;;;;15.46;60.33;99844.63;10413030;28;20041;-78
2022/04/26 20:54:54;;;;;;;25.02;5.63;;;;;;;14.42;61.05;99708.31;10412525;28;20045;-78
2022/04/26 20:59:55;;;;;;;19.10;4.07;;;;;;;14.61;61.18;99747.56;10420114;28;20038;-78
2022/04/26 21:04:56;;;;;;;28.60;3.85;;;;;;;13.33;61.55;99546.78;10417518;28;20493;-78
2022/04/26 21:09:57;;;;;;;20.00;4.20;;;;;;;11.95;62.32;99379.31;10421105;28;20045;-79
2022/04/26 21:14:58;;;;;;;23.00;5.30;;;;;;;13.54;62.77;99621.28;10419621;28;20513;-78
2022/04/26 21:19:58;;;;;;;17.63;4.30;;;;;;;12.95;63.40;99548.19;10420788;28;20049;-78
2022/04/26 21:24:59;;;;;;;27.60;5.30;;;;;;;14.19;64.18;99764.88;10419813;28;20045;-79
2022/04/26 21:30:00;;;;;;;28.77;4.60;;;;;;;13.86;64.84;99730.94;10420144;28;20144;-78
2022/04/26 21:35:00;;;;;;;24.58;4.00;;;;;;;14.46;65.25;99833.28;10419564;28;20061;-78
2022/04/26 21:40:04;;;;;;;18.90;4.25;;;;;;;14.29;67.10;99832.06;10419892;28;20432;-78
2022/04/26 21:45:06;;;;;;;22.63;4.30;;;;;;;13.61;66.50;99738.69;10419146;28;20052;-78
2022/04/26 21:55:26;;;;;;;16.38;4.43;;;;;;;13.28;66.30;99693.28;10418442;28;20128;-78
2022/04/26 22:00:42;;;;;;;21.95;4.88;;;;;;;14.01;68.63;99822.38;10419084;28;20560;-78
2022/04/26 22:05:45;;;;;;;22.27;4.38;;;;;;;13.21;68.02;99726.06;10418751;28;20061;-78
2022/04/26 22:10:46;;;;;;;26.05;4.32;;;;;;;13.17;67.38;99719.50;10417160;28;20044;-78
2022/04/26 22:15:47;;;;;;;25.42;5.50;;;;;;;13.07;67.66;99710.19;10418498;28;20046;-78
2022/04/26 22:20:48;;;;;;;42.60;8.65;;;;;;;12.93;67.68;99702.16;10418448;28;20409;-78
2022/04/26 22:25:49;;;;;;;21.02;4.00;;;;;;;11.88;68.44;99548.81;10417662;28;20045;-78
2022/04/26 22:30:49;;;;;;;13.60;4.45;;;;;;;13.12;68.28;99761.91;10417230;28;20042;-78
2022/04/26 22:35:50;;;;;;;15.45;4.05;;;;;;;11.32;68.32;99482.31;10416028;28;20041;-78
2022/04/26 22:40:51;;;;;;;24.83;6.45;;;;;;;12.82;68.87;99741.88;10416651;28;20064;-78
2022/04/26 22:45:52;;;;;;;33.72;7.47;;;;;;;12.06;69.50;99665.41;10416424;28;20413;-78
2022/04/26 22:50:53;;;;;;;32.65;7.10;;;;;;;11.77;70.47;99624.63;10416636;28;20092;-78
2022/04/26 22:55:53;;;;;;;35.70;7.50;;;;;;;11.59;70.04;99637.59;10415602;28;20099;-78
2022/04/26 23:00:55;;;;;;;24.45;5.32;;;;;;;10.94;70.02;99517.16;10416096;28;20042;-78
2022/04/26 23:05:55;;;;;;;19.67;4.50;;;;;;;11.47;71.29;99623.16;10415425;28;20524;-78
2022/04/26 23:10:56;;;;;;;13.88;3.60;;;;;;;11.12;71.29;99594.59;10415115;28;20053;-78
2022/04/26 23:15:57;;;;;;;13.07;4.07;;;;;;;12.20;72.15;99768.31;10416155;28;20053;-78
2022/04/26 23:20:58;;;;;;;13.55;3.55;;;;;;;10.64;71.35;99530.56;10415790;28;20527;-78
2022/04/26 23:25:59;;;;;;;24.80;4.47;;;;;;;12.19;72.00;99806.63;10414842;28;20037;-78
2022/04/26 23:31:00;;;;;;;17.50;4.75;;;;;;;12.21;72.46;99812.59;10414911;28;20044;-78
2022/04/26 23:36:00;;;;;;;21.00;5.97;;;;;;;11.09;73.41;99668.59;10415420;28;20099;-79
2022/04/26 23:41:01;;;;;;;28.77;6.82;;;;;;;11.19;74.18;99709.81;10415169;28;20505;-78
2022/04/26 23:46:02;;;;;;;31.20;7.75;;;;;;;11.88;74.56;99818.41;10414682;28;20045;-78
2022/04/26 23:56:22;;;;;;;29.35;8.55;;;;;;;10.18;74.96;99591.06;10414518;28;20056;-78
